createdAt,value
2018-07-28T00:00:11.545Z,0.00
2018-07-28T00:01:16.171Z,0.00
2018-07-28T00:02:11.458Z,0.00
2018-07-28T00:03:14.174Z,0.00
2018-07-28T00:04:13.635Z,0.00
2018-07-28T00:05:15.135Z,0.00
2018-07-28T00:06:16.635Z,0.00
2018-07-28T00:07:30.638Z,0.00
2018-07-28T00:08:18.151Z,0.00
2018-07-28T00:09:12.136Z,0.00
2018-07-28T00:10:14.646Z,0.00
2018-07-28T00:11:14.137Z,0.00
2018-07-28T00:12:13.635Z,0.00
2018-07-28T00:13:15.217Z,0.00
2018-07-28T00:14:11.938Z,0.00
2018-07-28T00:15:17.679Z,0.00
2018-07-28T00:16:13.135Z,0.00
2018-07-28T00:17:32.159Z,0.00
2018-07-28T00:18:13.646Z,0.00
2018-07-28T00:19:13.156Z,0.00
2018-07-28T00:20:12.637Z,0.00
2018-07-28T00:21:12.640Z,0.00
2018-07-28T00:22:12.139Z,0.00
2018-07-28T00:23:17.146Z,0.00
2018-07-28T00:24:12.141Z,0.00
2018-07-28T00:25:11.202Z,0.00
2018-07-28T00:26:15.140Z,0.00
2018-07-28T00:27:14.651Z,0.00
2018-07-28T00:28:16.142Z,0.00
2018-07-28T00:29:11.645Z,0.00
2018-07-28T00:30:12.144Z,0.00
2018-07-28T00:31:11.234Z,0.00
2018-07-28T00:32:12.641Z,0.00
2018-07-28T00:33:12.142Z,0.00
2018-07-28T00:34:13.144Z,0.00
2018-07-28T00:35:11.642Z,0.00
2018-07-28T00:36:12.410Z,0.00
2018-07-28T00:37:15.144Z,0.00
2018-07-28T00:38:11.198Z,0.00
2018-07-28T00:39:11.648Z,0.00
2018-07-28T00:40:17.643Z,0.00
2018-07-28T00:41:12.645Z,0.00
2018-07-28T00:42:11.148Z,0.00
2018-07-28T00:43:12.648Z,0.00
2018-07-28T00:44:11.439Z,0.00
2018-07-28T00:45:11.457Z,0.00
2018-07-28T00:46:11.648Z,0.00
2018-07-28T00:47:32.144Z,0.00
2018-07-28T00:48:13.649Z,0.00
2018-07-28T00:49:11.780Z,0.00
2018-07-28T00:50:11.182Z,0.00
2018-07-28T00:51:11.149Z,0.00
2018-07-28T00:52:12.147Z,0.00
2018-07-28T00:53:12.150Z,0.00
2018-07-28T00:54:10.549Z,0.00
2018-07-28T00:55:14.148Z,0.00
2018-07-28T00:56:11.150Z,0.00
2018-07-28T00:57:12.160Z,0.00
2018-07-28T00:58:12.654Z,0.00
2018-07-28T00:59:11.148Z,0.00
2018-07-28T01:00:12.154Z,0.00
2018-07-28T01:01:11.007Z,0.00
2018-07-28T01:02:13.653Z,0.00
2018-07-28T01:03:12.151Z,0.00
2018-07-28T01:04:13.154Z,0.00
2018-07-28T01:05:10.308Z,0.00
2018-07-28T01:06:10.888Z,0.00
2018-07-28T01:07:12.153Z,0.00
2018-07-28T01:08:11.657Z,0.00
2018-07-28T01:09:11.164Z,0.00
2018-07-28T01:10:12.178Z,0.00
2018-07-28T01:11:11.653Z,0.00
2018-07-28T01:12:11.168Z,0.00
2018-07-28T01:13:10.981Z,0.00
2018-07-28T01:14:10.926Z,0.00
2018-07-28T01:15:10.941Z,0.00
2018-07-28T01:16:10.529Z,0.00
2018-07-28T01:17:10.175Z,0.00
2018-07-28T01:18:11.874Z,0.00
2018-07-28T01:19:12.699Z,0.00
2018-07-28T01:20:10.680Z,0.00
2018-07-28T01:21:10.051Z,0.00
2018-07-28T01:22:11.656Z,0.00
2018-07-28T01:23:12.160Z,0.00
2018-07-28T01:24:11.660Z,0.00
2018-07-28T01:25:16.159Z,0.00
2018-07-28T01:26:09.981Z,0.00
2018-07-28T01:27:11.660Z,0.00
2018-07-28T01:28:12.662Z,0.00
2018-07-28T01:29:11.661Z,0.00
2018-07-28T01:30:13.505Z,0.00
2018-07-28T01:31:12.163Z,0.00
2018-07-28T01:32:10.679Z,0.00
2018-07-28T01:33:11.167Z,0.00
2018-07-28T01:34:11.218Z,0.00
2018-07-28T01:35:09.889Z,0.00
2018-07-28T01:36:11.172Z,0.00
2018-07-28T01:37:10.662Z,0.00
2018-07-28T01:38:10.007Z,0.00
2018-07-28T01:39:11.445Z,0.00
2018-07-28T01:40:12.675Z,0.00
2018-07-28T01:41:09.719Z,0.00
2018-07-28T01:42:14.845Z,0.00
2018-07-28T01:43:09.702Z,0.00
2018-07-28T01:44:11.782Z,0.00
2018-07-28T01:45:10.667Z,0.00
2018-07-28T01:46:10.868Z,0.00
2018-07-28T01:47:11.667Z,0.00
2018-07-28T01:48:13.168Z,0.00
2018-07-28T01:49:09.552Z,0.00
2018-07-28T01:50:11.764Z,0.00
2018-07-28T01:51:11.191Z,0.00
2018-07-28T01:52:11.670Z,0.00
2018-07-28T01:53:12.456Z,0.00
2018-07-28T01:54:18.674Z,0.00
2018-07-28T01:55:11.171Z,0.00
2018-07-28T01:56:17.170Z,0.00
2018-07-28T01:57:11.671Z,0.00
2018-07-28T01:58:11.682Z,0.00
2018-07-28T01:59:10.684Z,0.00
2018-07-28T02:00:20.381Z,0.00
2018-07-28T02:01:10.679Z,0.00
2018-07-28T02:02:17.673Z,0.00
2018-07-28T02:03:10.674Z,0.00
2018-07-28T02:04:21.176Z,0.00
2018-07-28T02:05:09.250Z,0.00
2018-07-28T02:06:15.177Z,0.00
2018-07-28T02:07:11.173Z,0.00
2018-07-28T02:08:11.313Z,0.00
2018-07-28T02:09:09.377Z,0.00
2018-07-28T02:10:10.176Z,0.00
2018-07-28T02:11:09.282Z,0.00
2018-07-28T02:12:12.680Z,0.00
2018-07-28T02:13:10.185Z,0.00
2018-07-28T02:14:09.619Z,0.00
2018-07-28T02:15:09.312Z,0.00
2018-07-28T02:16:10.183Z,0.00
2018-07-28T02:17:10.185Z,0.00
2018-07-28T02:18:10.570Z,0.00
2018-07-28T02:19:10.678Z,0.00
2018-07-28T02:20:11.178Z,0.00
2018-07-28T02:21:12.181Z,0.00
2018-07-28T02:24:22.884Z,0.00
2018-07-28T02:25:22.895Z,0.00
2018-07-28T02:26:26.168Z,0.00
2018-07-28T02:27:24.665Z,0.00
2018-07-28T02:28:22.406Z,0.00
2018-07-28T02:29:22.712Z,0.00
2018-07-28T02:30:23.673Z,0.00
2018-07-28T02:31:24.166Z,0.00
2018-07-28T02:32:22.323Z,0.00
2018-07-28T02:33:23.179Z,0.00
2018-07-28T02:34:23.668Z,0.00
2018-07-28T02:35:23.678Z,0.00
2018-07-28T02:36:23.065Z,0.00
2018-07-28T02:37:30.150Z,0.00
2018-07-28T02:38:25.956Z,0.00
2018-07-28T02:39:25.177Z,0.00
2018-07-28T02:40:24.946Z,0.00
2018-07-28T02:41:23.170Z,0.00
2018-07-28T02:42:24.169Z,0.00
2018-07-28T02:43:23.628Z,0.00
2018-07-28T02:44:23.671Z,0.00
2018-07-28T02:45:27.338Z,0.00
2018-07-28T02:46:24.672Z,0.00
2018-07-28T02:47:23.172Z,0.00
2018-07-28T02:48:22.119Z,0.00
2018-07-28T02:49:25.420Z,0.00
2018-07-28T02:50:22.969Z,0.00
2018-07-28T02:51:43.686Z,0.00
2018-07-28T02:52:22.957Z,0.00
2018-07-28T02:53:25.173Z,0.00
2018-07-28T02:54:23.182Z,0.00
2018-07-28T02:55:23.677Z,0.00
2018-07-28T02:56:22.296Z,0.00
2018-07-28T02:57:23.174Z,0.00
2018-07-28T02:58:21.899Z,0.00
2018-07-28T02:59:23.676Z,0.00
2018-07-28T03:00:22.558Z,0.00
2018-07-28T03:01:21.891Z,0.00
2018-07-28T03:02:22.678Z,0.00
2018-07-28T03:03:23.678Z,0.00
2018-07-28T03:04:21.905Z,0.00
2018-07-28T03:05:22.248Z,0.00
2018-07-28T03:06:21.748Z,0.00
2018-07-28T03:07:21.821Z,0.00
2018-07-28T03:08:23.182Z,0.00
2018-07-28T03:09:22.545Z,0.00
2018-07-28T03:10:22.676Z,0.00
2018-07-28T03:11:24.679Z,0.00
2018-07-28T03:12:22.678Z,0.00
2018-07-28T03:13:23.181Z,0.00
2018-07-28T03:14:23.183Z,0.00
2018-07-28T03:15:22.017Z,0.00
2018-07-28T03:16:23.182Z,0.00
2018-07-28T03:17:23.183Z,0.00
2018-07-28T03:18:22.183Z,0.00
2018-07-28T03:19:22.508Z,0.00
2018-07-28T03:20:24.242Z,0.00
2018-07-28T03:21:21.497Z,0.00
2018-07-28T03:22:22.264Z,0.00
2018-07-28T03:23:22.684Z,0.00
2018-07-28T03:24:22.206Z,0.00
2018-07-28T03:25:22.185Z,0.00
2018-07-28T03:26:22.751Z,0.00
2018-07-28T03:27:21.424Z,0.00
2018-07-28T03:28:22.187Z,0.00
2018-07-28T03:29:22.715Z,0.00
2018-07-28T03:30:22.695Z,0.00
2018-07-28T03:31:21.404Z,0.00
2018-07-28T03:32:21.313Z,0.00
2018-07-28T03:33:22.687Z,0.00
2018-07-28T03:34:22.188Z,0.00
2018-07-28T03:35:21.685Z,0.00
2018-07-28T03:36:22.189Z,0.00
2018-07-28T03:37:21.290Z,0.00
2018-07-28T03:38:22.179Z,0.00
2018-07-28T03:39:22.113Z,0.00
2018-07-28T03:40:21.211Z,0.00
2018-07-28T03:41:22.691Z,0.00
2018-07-28T03:42:21.483Z,0.00
2018-07-28T03:43:21.694Z,0.00
2018-07-28T03:44:21.432Z,0.00
2018-07-28T03:45:21.692Z,0.00
2018-07-28T03:46:22.693Z,0.00
2018-07-28T03:47:22.725Z,0.00
2018-07-28T03:48:22.458Z,0.00
2018-07-28T03:49:21.749Z,0.00
2018-07-28T03:50:24.690Z,0.00
2018-07-28T03:51:20.964Z,0.00
2018-07-28T03:52:20.976Z,5.63
2018-07-28T03:53:21.288Z,5.63
2018-07-28T03:54:20.992Z,5.63
2018-07-28T03:55:21.698Z,5.63
2018-07-28T03:56:23.237Z,5.63
2018-07-28T03:57:21.693Z,5.63
2018-07-28T03:58:21.696Z,5.63
2018-07-28T03:59:21.254Z,5.63
2018-07-28T04:00:21.736Z,5.63
2018-07-28T04:01:21.695Z,11.25
2018-07-28T04:02:21.696Z,11.25
2018-07-28T04:03:22.699Z,11.25
2018-07-28T04:04:21.151Z,11.25
2018-07-28T04:05:21.710Z,11.25
2018-07-28T04:06:23.802Z,11.25
2018-07-28T04:07:21.067Z,16.88
2018-07-28T04:08:21.321Z,16.88
2018-07-28T04:09:21.696Z,16.88
2018-07-28T04:10:21.698Z,16.88
2018-07-28T04:11:21.214Z,16.88
2018-07-28T04:12:20.976Z,22.50
2018-07-28T04:13:21.699Z,22.50
2018-07-28T04:14:21.203Z,22.50
2018-07-28T04:15:21.828Z,22.50
2018-07-28T04:16:20.509Z,28.13
2018-07-28T04:17:20.922Z,28.13
2018-07-28T04:18:21.200Z,28.13
2018-07-28T04:19:21.213Z,28.13
2018-07-28T04:20:20.434Z,28.13
2018-07-28T04:21:20.845Z,33.75
2018-07-28T04:22:20.857Z,33.75
2018-07-28T04:23:21.208Z,33.75
2018-07-28T04:24:21.717Z,33.75
2018-07-28T04:25:21.701Z,33.75
2018-07-28T04:26:20.445Z,33.75
2018-07-28T04:27:23.203Z,39.38
2018-07-28T04:28:21.715Z,39.38
2018-07-28T04:29:21.138Z,39.38
2018-07-28T04:30:20.763Z,39.38
2018-07-28T04:31:20.794Z,39.38
2018-07-28T04:32:21.209Z,39.38
2018-07-28T04:33:21.204Z,39.38
2018-07-28T04:34:21.706Z,39.38
2018-07-28T04:35:20.322Z,39.38
2018-07-28T04:36:22.209Z,39.38
2018-07-28T04:37:20.767Z,39.38
2018-07-28T04:38:20.709Z,39.38
2018-07-28T04:39:21.307Z,45.00
2018-07-28T04:40:21.721Z,45.00
2018-07-28T04:41:20.255Z,45.00
2018-07-28T04:42:21.711Z,45.00
2018-07-28T04:43:21.710Z,45.00
2018-07-28T04:44:20.712Z,45.00
2018-07-28T04:45:21.707Z,45.00
2018-07-28T04:46:20.384Z,45.00
2018-07-28T04:47:20.073Z,45.00
2018-07-28T04:48:20.614Z,45.00
2018-07-28T04:49:21.715Z,45.00
2018-07-28T04:50:21.213Z,45.00
2018-07-28T04:51:27.218Z,45.00
2018-07-28T04:52:20.544Z,45.00
2018-07-28T04:53:21.218Z,45.00
2018-07-28T04:54:20.257Z,39.38
2018-07-28T04:55:20.240Z,39.38
2018-07-28T04:56:20.719Z,39.38
2018-07-28T04:57:20.645Z,33.75
2018-07-28T04:58:20.715Z,33.75
2018-07-28T04:59:20.713Z,33.75
2018-07-28T05:00:20.264Z,28.13
2018-07-28T05:01:20.585Z,28.13
2018-07-28T05:02:20.222Z,28.13
2018-07-28T05:03:22.217Z,28.13
2018-07-28T05:04:20.719Z,28.13
2018-07-28T05:05:19.787Z,28.13
2018-07-28T05:06:22.221Z,22.50
2018-07-28T05:07:20.048Z,22.50
2018-07-28T05:08:21.280Z,22.50
2018-07-28T05:09:21.151Z,16.88
2018-07-28T05:10:20.718Z,16.88
2018-07-28T05:11:19.545Z,16.88
2018-07-28T05:12:20.229Z,16.88
2018-07-28T05:13:20.234Z,16.88
2018-07-28T05:14:20.222Z,11.25
2018-07-28T05:15:25.228Z,11.25
2018-07-28T05:16:21.221Z,11.25
2018-07-28T05:17:21.222Z,11.25
2018-07-28T05:18:20.735Z,11.25
2018-07-28T05:19:20.724Z,11.25
2018-07-28T05:20:20.734Z,5.63
2018-07-28T05:21:20.723Z,5.63
2018-07-28T05:22:21.729Z,5.63
2018-07-28T05:23:19.728Z,5.63
2018-07-28T05:24:22.728Z,5.63
2018-07-28T05:25:29.942Z,5.63
2018-07-28T05:26:23.226Z,5.63
2018-07-28T05:27:21.310Z,5.63
2018-07-28T05:28:20.725Z,5.63
2018-07-28T05:29:20.731Z,5.63
2018-07-28T05:30:22.734Z,5.63
2018-07-28T05:31:20.742Z,5.63
2018-07-28T05:32:21.227Z,5.63
2018-07-28T05:33:20.061Z,5.63
2018-07-28T05:34:26.236Z,5.63
2018-07-28T05:35:21.238Z,5.63
2018-07-28T05:36:21.227Z,5.63
2018-07-28T05:37:20.729Z,5.63
2018-07-28T05:38:20.231Z,5.63
2018-07-28T05:39:20.734Z,5.63
2018-07-28T05:40:21.138Z,11.25
2018-07-28T05:41:21.732Z,11.25
2018-07-28T05:42:30.258Z,11.25
2018-07-28T05:43:21.733Z,11.25
2018-07-28T05:44:19.731Z,11.25
2018-07-28T05:45:19.739Z,11.25
2018-07-28T05:46:19.740Z,11.25
2018-07-28T05:47:18.779Z,11.25
2018-07-28T05:48:19.733Z,11.25
2018-07-28T05:49:19.733Z,11.25
2018-07-28T05:50:20.732Z,16.88
2018-07-28T05:51:22.239Z,16.88
2018-07-28T05:52:19.240Z,22.50
2018-07-28T05:53:20.234Z,22.50
2018-07-28T05:54:20.732Z,28.13
2018-07-28T05:55:20.234Z,39.38
2018-07-28T05:56:30.735Z,45.00
2018-07-28T05:57:26.737Z,50.63
2018-07-28T05:58:19.235Z,50.63
2018-07-28T05:59:19.236Z,56.25
2018-07-28T06:00:20.736Z,61.88
2018-07-28T06:01:19.237Z,67.50
2018-07-28T06:02:19.310Z,67.50
2018-07-28T06:03:20.738Z,67.50
2018-07-28T06:04:25.600Z,67.50
2018-07-28T06:06:11.381Z,61.88
2018-07-28T06:07:11.308Z,56.25
2018-07-28T06:09:04.231Z,45.00
2018-07-28T06:10:04.235Z,45.00
2018-07-28T06:11:57.081Z,39.38
2018-07-28T06:12:57.000Z,33.75
2018-07-28T06:14:49.935Z,33.75
2018-07-28T06:15:49.851Z,33.75
2018-07-28T06:17:42.785Z,33.75
2018-07-28T06:18:42.702Z,33.75
2018-07-28T06:20:35.638Z,33.75
2018-07-28T06:21:35.554Z,33.75
2018-07-28T06:23:28.483Z,39.38
2018-07-28T06:24:28.409Z,39.38
2018-07-28T06:26:21.335Z,45.00
2018-07-28T06:27:21.256Z,45.00
2018-07-28T06:29:14.289Z,45.00
2018-07-28T06:30:14.212Z,45.00
2018-07-28T06:32:07.140Z,50.63
2018-07-28T06:33:07.058Z,50.63
2018-07-28T06:34:07.131Z,50.63
2018-07-28T06:35:07.036Z,50.63
2018-07-28T06:36:07.037Z,56.25
2018-07-28T06:37:06.985Z,56.25
2018-07-28T06:38:07.051Z,56.25
2018-07-28T06:39:06.952Z,61.88
2018-07-28T06:40:06.960Z,61.88
2018-07-28T06:41:06.917Z,61.88
2018-07-28T06:42:06.971Z,61.88
2018-07-28T06:43:06.884Z,67.50
2018-07-28T06:44:06.882Z,67.50
2018-07-28T06:45:06.843Z,67.50
2018-07-28T06:46:06.916Z,73.13
2018-07-28T06:47:06.811Z,73.13
2018-07-28T06:48:06.804Z,78.75
2018-07-28T06:49:06.767Z,78.75
2018-07-28T06:50:06.818Z,84.38
2018-07-28T06:51:06.742Z,84.38
2018-07-28T06:52:06.830Z,90.00
2018-07-28T06:53:06.703Z,90.00
2018-07-28T06:54:06.742Z,90.00
2018-07-28T06:55:06.669Z,90.00
2018-07-28T06:56:06.754Z,95.63
2018-07-28T06:57:06.633Z,95.63
2018-07-28T06:58:06.666Z,95.63
2018-07-28T06:59:06.595Z,95.63
2018-07-28T07:00:06.679Z,95.63
2018-07-28T07:01:06.562Z,95.63
2018-07-28T07:02:06.592Z,95.63
2018-07-28T07:03:06.524Z,95.63
2018-07-28T07:04:06.600Z,101.25
2018-07-28T07:05:06.511Z,101.25
2018-07-28T07:06:06.506Z,101.25
2018-07-28T07:07:06.453Z,101.25
2018-07-28T07:08:06.539Z,106.88
2018-07-28T07:09:06.420Z,106.88
2018-07-28T07:10:06.431Z,106.88
2018-07-28T07:11:06.382Z,106.88
2018-07-28T07:12:06.442Z,112.50
2018-07-28T07:13:06.347Z,112.50
2018-07-28T07:14:06.352Z,112.50
2018-07-28T07:15:06.315Z,112.50
2018-07-28T07:16:06.363Z,112.50
2018-07-28T07:17:06.279Z,112.50
2018-07-28T07:18:06.276Z,118.13
2018-07-28T07:19:06.241Z,118.13
2018-07-28T07:20:06.286Z,118.13
2018-07-28T07:21:06.209Z,123.75
2018-07-28T07:22:06.300Z,123.75
2018-07-28T07:23:06.168Z,123.75
2018-07-28T07:24:06.208Z,123.75
2018-07-28T07:25:06.133Z,118.13
2018-07-28T07:26:06.222Z,118.13
2018-07-28T07:27:06.096Z,123.75
2018-07-28T07:28:06.132Z,123.75
2018-07-28T07:29:06.062Z,123.75
2018-07-28T07:30:06.144Z,123.75
2018-07-28T07:31:06.017Z,123.75
2018-07-28T07:32:06.056Z,123.75
2018-07-28T07:33:05.991Z,123.75
2018-07-28T07:34:06.068Z,123.75
2018-07-28T07:35:05.954Z,118.13
2018-07-28T07:36:06.034Z,118.13
2018-07-28T07:37:05.920Z,118.13
2018-07-28T07:38:05.990Z,112.50
2018-07-28T07:39:05.885Z,112.50
2018-07-28T07:40:05.900Z,112.50
2018-07-28T07:41:05.851Z,112.50
2018-07-28T07:42:05.912Z,112.50
2018-07-28T07:43:05.816Z,118.13
2018-07-28T07:44:06.989Z,118.13
2018-07-28T07:45:05.835Z,118.13
2018-07-28T07:46:05.832Z,118.13
2018-07-28T07:47:05.777Z,118.13
2018-07-28T07:48:05.740Z,118.13
2018-07-28T07:49:05.713Z,118.13
2018-07-28T07:50:05.755Z,112.50
2018-07-28T07:51:05.678Z,112.50
2018-07-28T07:52:05.771Z,106.88
2018-07-28T07:53:05.640Z,106.88
2018-07-28T07:54:05.680Z,101.25
2018-07-28T07:55:05.610Z,101.25
2018-07-28T07:56:05.691Z,101.25
2018-07-28T07:57:05.574Z,95.63
2018-07-28T07:58:05.602Z,95.63
2018-07-28T07:59:05.539Z,95.63
2018-07-28T08:00:05.611Z,90.00
2018-07-28T08:01:05.501Z,90.00
2018-07-28T08:02:05.523Z,90.00
2018-07-28T08:03:05.471Z,84.38
2018-07-28T08:04:05.534Z,84.38
2018-07-28T08:05:05.434Z,90.00
2018-07-28T08:06:05.445Z,84.38
2018-07-28T08:07:05.402Z,84.38
2018-07-28T08:08:05.383Z,84.38
2018-07-28T08:09:05.364Z,84.38
2018-07-28T08:10:05.445Z,90.00
2018-07-28T08:11:05.335Z,95.63
2018-07-28T08:12:05.832Z,101.25
2018-07-28T08:13:05.303Z,101.25
2018-07-28T08:14:06.751Z,106.88
2018-07-28T08:15:05.264Z,106.88
2018-07-28T08:16:05.282Z,112.50
2018-07-28T08:17:05.231Z,118.13
2018-07-28T08:18:05.296Z,118.13
2018-07-28T08:19:05.193Z,123.75
2018-07-28T08:20:05.210Z,123.75
2018-07-28T08:21:05.225Z,129.38
2018-07-28T08:22:05.222Z,129.38
2018-07-28T08:23:05.130Z,129.38
2018-07-28T08:24:05.141Z,129.38
2018-07-28T08:25:05.096Z,129.38
2018-07-28T08:26:05.148Z,135.00
2018-07-28T08:27:05.060Z,135.00
2018-07-28T08:28:05.061Z,135.00
2018-07-28T08:29:05.029Z,140.63
2018-07-28T08:30:05.078Z,135.00
2018-07-28T08:31:04.995Z,135.00
2018-07-28T08:32:05.088Z,135.00
2018-07-28T08:33:04.964Z,135.00
2018-07-28T08:34:05.004Z,135.00
2018-07-28T08:35:04.926Z,135.00
2018-07-28T08:36:05.016Z,135.00
2018-07-28T08:37:04.895Z,135.00
2018-07-28T08:38:04.928Z,135.00
2018-07-28T08:39:04.860Z,135.00
2018-07-28T08:40:05.007Z,140.63
2018-07-28T08:41:04.830Z,140.63
2018-07-28T08:42:04.852Z,146.25
2018-07-28T08:43:04.804Z,146.25
2018-07-28T08:44:04.869Z,151.88
2018-07-28T08:45:04.766Z,151.88
2018-07-28T08:46:04.779Z,151.88
2018-07-28T08:47:04.734Z,151.88
2018-07-28T08:48:04.792Z,151.88
2018-07-28T08:49:04.792Z,151.88
2018-07-28T08:50:04.704Z,146.25
2018-07-28T08:51:04.665Z,135.00
2018-07-28T08:52:04.718Z,135.00
2018-07-28T08:53:04.636Z,129.38
2018-07-28T08:54:04.634Z,129.38
2018-07-28T08:55:04.600Z,140.63
2018-07-28T08:56:04.643Z,151.88
2018-07-28T08:57:04.569Z,163.13
2018-07-28T08:58:04.663Z,168.75
2018-07-28T08:59:04.537Z,168.75
2018-07-28T09:00:04.576Z,168.75
2018-07-28T09:01:04.500Z,174.38
2018-07-28T09:02:04.590Z,174.38
2018-07-28T09:03:04.468Z,174.38
2018-07-28T09:04:04.498Z,174.38
2018-07-28T09:05:04.437Z,174.38
2018-07-28T09:06:04.567Z,174.38
2018-07-28T09:07:04.403Z,180.00
2018-07-28T09:08:04.424Z,180.00
2018-07-28T09:09:04.374Z,185.63
2018-07-28T09:10:04.439Z,185.63
2018-07-28T09:11:04.335Z,180.00
2018-07-28T09:12:04.349Z,180.00
2018-07-28T09:13:04.306Z,174.38
2018-07-28T09:14:04.367Z,168.75
2018-07-28T09:15:04.274Z,163.13
2018-07-28T09:16:04.298Z,151.88
2018-07-28T09:17:04.240Z,146.25
2018-07-28T09:18:04.367Z,140.63
2018-07-28T09:19:04.207Z,135.00
2018-07-28T09:20:04.198Z,123.75
2018-07-28T09:21:04.174Z,112.50
2018-07-28T09:22:04.221Z,101.25
2018-07-28T09:23:04.140Z,101.25
2018-07-28T09:24:04.229Z,101.25
2018-07-28T09:25:04.113Z,101.25
2018-07-28T09:26:04.141Z,106.88
2018-07-28T09:27:04.076Z,112.50
2018-07-28T09:28:04.155Z,123.75
2018-07-28T09:29:04.050Z,135.00
2018-07-28T09:30:04.068Z,140.63
2018-07-28T09:31:04.011Z,151.88
2018-07-28T09:32:04.082Z,140.63
2018-07-28T09:33:03.982Z,140.63
2018-07-28T09:34:03.994Z,140.63
2018-07-28T09:35:03.947Z,135.00
2018-07-28T09:36:04.009Z,129.38
2018-07-28T09:37:03.928Z,129.38
2018-07-28T09:38:03.922Z,135.00
2018-07-28T09:39:03.889Z,129.38
2018-07-28T09:40:03.935Z,123.75
2018-07-28T09:41:03.851Z,123.75
2018-07-28T09:42:03.847Z,123.75
2018-07-28T09:43:03.818Z,129.38
2018-07-28T09:44:03.861Z,129.38
2018-07-28T09:45:03.788Z,129.38
2018-07-28T09:46:03.878Z,129.38
2018-07-28T09:47:03.770Z,129.38
2018-07-28T09:48:03.792Z,129.38
2018-07-28T09:49:03.724Z,118.13
2018-07-28T09:50:03.804Z,112.50
2018-07-28T09:51:03.691Z,106.88
2018-07-28T09:52:03.714Z,106.88
2018-07-28T09:53:03.663Z,112.50
2018-07-28T09:54:03.729Z,112.50
2018-07-28T09:55:03.627Z,118.13
2018-07-28T09:56:03.700Z,118.13
2018-07-28T09:57:03.596Z,123.75
2018-07-28T09:58:03.654Z,135.00
2018-07-28T09:59:03.562Z,151.88
2018-07-28T10:00:03.568Z,168.75
2018-07-28T10:01:03.533Z,174.38
2018-07-28T10:02:03.581Z,185.63
2018-07-28T10:03:03.500Z,191.25
2018-07-28T10:04:03.594Z,202.50
2018-07-28T10:05:03.472Z,208.13
2018-07-28T10:06:03.506Z,208.13
2018-07-28T10:07:03.443Z,202.50
2018-07-28T10:08:03.522Z,196.88
2018-07-28T10:09:03.404Z,202.50
2018-07-28T10:10:03.432Z,196.88
2018-07-28T10:11:03.375Z,191.25
2018-07-28T10:12:03.446Z,191.25
2018-07-28T10:13:03.342Z,196.88
2018-07-28T10:14:03.359Z,196.88
2018-07-28T10:15:03.319Z,196.88
2018-07-28T10:16:03.369Z,196.88
2018-07-28T10:17:03.283Z,202.50
2018-07-28T10:18:03.282Z,202.50
2018-07-28T10:19:03.256Z,208.13
2018-07-28T10:20:03.297Z,208.13
2018-07-28T10:21:03.223Z,219.38
2018-07-28T10:22:03.312Z,225.00
2018-07-28T10:23:03.261Z,230.63
2018-07-28T10:24:03.223Z,241.88
2018-07-28T10:25:03.158Z,258.75
2018-07-28T10:26:03.238Z,275.63
2018-07-28T10:27:03.133Z,253.13
2018-07-28T10:28:03.150Z,258.75
2018-07-28T10:29:03.099Z,286.88
2018-07-28T10:30:03.170Z,309.38
2018-07-28T10:31:03.068Z,320.63
2018-07-28T10:32:03.073Z,320.63
2018-07-28T10:33:03.045Z,331.88
2018-07-28T10:34:03.092Z,331.88
2018-07-28T10:35:03.011Z,360.00
2018-07-28T10:36:03.105Z,348.75
2018-07-28T10:37:02.980Z,303.75
2018-07-28T10:38:03.017Z,258.75
2018-07-28T10:39:02.951Z,241.88
2018-07-28T10:40:03.034Z,219.38
2018-07-28T10:41:02.924Z,219.38
2018-07-28T10:42:02.942Z,230.63
2018-07-28T10:43:02.897Z,241.88
2018-07-28T10:44:02.957Z,264.38
2018-07-28T10:45:02.865Z,253.13
2018-07-28T10:46:03.902Z,258.75
2018-07-28T10:47:02.863Z,275.63
2018-07-28T10:48:07.793Z,292.50
2018-07-28T10:49:02.802Z,326.25
2018-07-28T10:50:02.901Z,337.50
2018-07-28T10:51:02.782Z,331.88
2018-07-28T10:52:02.825Z,326.25
2018-07-28T10:53:02.760Z,320.63
2018-07-28T10:54:02.824Z,331.88
2018-07-28T10:55:02.728Z,337.50
2018-07-28T10:56:02.737Z,343.13
2018-07-28T10:57:02.702Z,354.38
2018-07-28T10:58:02.747Z,348.75
2018-07-28T10:59:02.677Z,315.00
2018-07-28T11:00:02.795Z,281.25
2018-07-28T11:01:02.648Z,270.00
2018-07-28T11:02:02.676Z,264.38
2018-07-28T11:03:02.622Z,253.13
2018-07-28T11:04:02.690Z,230.63
2018-07-28T11:05:02.592Z,303.75
2018-07-28T11:06:02.602Z,348.75
2018-07-28T11:07:02.566Z,343.13
2018-07-28T11:08:02.620Z,303.75
2018-07-28T11:09:02.579Z,303.75
2018-07-28T11:10:02.630Z,320.63
2018-07-28T11:11:02.513Z,371.25
2018-07-28T11:12:02.545Z,371.25
2018-07-28T11:13:02.491Z,337.50
2018-07-28T11:14:02.554Z,348.75
2018-07-28T11:15:02.460Z,320.63
2018-07-28T11:16:02.468Z,303.75
2018-07-28T11:17:02.437Z,343.13
2018-07-28T11:18:02.483Z,326.25
2018-07-28T11:19:02.455Z,247.50
2018-07-28T11:20:02.499Z,208.13
2018-07-28T11:21:02.386Z,225.00
2018-07-28T11:22:02.409Z,315.00
2018-07-28T11:23:02.359Z,309.38
2018-07-28T11:24:03.449Z,264.38
2018-07-28T11:25:02.337Z,253.13
2018-07-28T11:26:02.423Z,337.50
2018-07-28T11:27:02.313Z,286.88
2018-07-28T11:28:02.350Z,292.50
2018-07-28T11:29:02.291Z,315.00
2018-07-28T11:30:02.367Z,326.25
2018-07-28T11:31:02.267Z,315.00
2018-07-28T11:32:02.337Z,309.38
2018-07-28T11:33:02.256Z,292.50
2018-07-28T11:34:02.293Z,286.88
2018-07-28T11:35:02.216Z,281.25
2018-07-28T11:36:02.304Z,281.25
2018-07-28T11:37:02.186Z,281.25
2018-07-28T11:38:02.213Z,281.25
2018-07-28T11:39:02.162Z,281.25
2018-07-28T11:40:02.226Z,286.88
2018-07-28T11:41:02.141Z,281.25
2018-07-28T11:42:02.141Z,286.88
2018-07-28T11:43:02.116Z,286.88
2018-07-28T11:44:02.159Z,286.88
2018-07-28T11:45:02.090Z,286.88
2018-07-28T11:46:02.166Z,292.50
2018-07-28T11:47:02.065Z,303.75
2018-07-28T11:48:02.056Z,309.38
2018-07-28T11:49:02.042Z,298.13
2018-07-28T11:50:02.094Z,298.13
2018-07-28T11:51:02.018Z,292.50
2018-07-28T11:52:02.111Z,286.88
2018-07-28T11:53:02.001Z,298.13
2018-07-28T11:54:01.986Z,303.75
2018-07-28T11:55:02.032Z,298.13
2018-07-28T11:56:01.956Z,309.38
2018-07-28T11:57:02.047Z,320.63
2018-07-28T11:58:01.947Z,315.00
2018-07-28T11:59:01.974Z,320.63
2018-07-28T12:00:01.913Z,326.25
2018-07-28T12:01:01.972Z,320.63
2018-07-28T12:02:01.888Z,326.25
2018-07-28T12:03:01.992Z,331.88
2018-07-28T12:04:01.862Z,331.88
2018-07-28T12:05:01.896Z,343.13
2018-07-28T12:06:01.834Z,354.38
2018-07-28T12:07:01.913Z,343.13
2018-07-28T12:08:01.815Z,343.13
2018-07-28T12:09:01.825Z,264.38
2018-07-28T12:10:01.790Z,315.00
2018-07-28T12:11:01.839Z,315.00
2018-07-28T12:12:01.768Z,292.50
2018-07-28T12:13:01.856Z,225.00
2018-07-28T12:14:01.746Z,303.75
2018-07-28T12:15:01.856Z,298.13
2018-07-28T12:16:01.721Z,258.75
2018-07-28T12:17:01.778Z,168.75
2018-07-28T12:18:01.712Z,253.13
2018-07-28T12:19:01.791Z,225.00
2018-07-28T12:20:01.674Z,264.38
2018-07-28T12:21:01.704Z,303.75
2018-07-28T12:22:01.650Z,315.00
2018-07-28T12:23:01.719Z,326.25
2018-07-28T12:24:01.682Z,337.50
2018-07-28T12:25:01.629Z,326.25
2018-07-28T12:26:01.604Z,320.63
2018-07-28T12:27:01.646Z,275.63
2018-07-28T12:28:01.590Z,270.00
2018-07-28T12:29:01.658Z,286.88
2018-07-28T12:30:01.559Z,292.50
2018-07-28T12:31:01.569Z,292.50
2018-07-28T12:32:01.537Z,320.63
2018-07-28T12:33:01.588Z,315.00
2018-07-28T12:34:01.515Z,315.00
2018-07-28T12:35:01.669Z,326.25
2018-07-28T12:36:01.492Z,331.88
2018-07-28T12:37:01.509Z,326.25
2018-07-28T12:38:01.469Z,315.00
2018-07-28T12:39:01.524Z,286.88
2018-07-28T12:40:01.448Z,264.38
2018-07-28T12:41:01.542Z,208.13
2018-07-28T12:42:01.424Z,208.13
2018-07-28T12:43:01.450Z,213.75
2018-07-28T12:44:01.400Z,230.63
2018-07-28T12:45:01.464Z,258.75
2018-07-28T12:46:01.376Z,292.50
2018-07-28T12:47:01.477Z,298.13
2018-07-28T12:48:01.354Z,264.38
2018-07-28T12:49:01.389Z,236.25
2018-07-28T12:50:01.333Z,270.00
2018-07-28T12:51:01.404Z,225.00
2018-07-28T12:52:01.312Z,208.13
2018-07-28T12:53:01.316Z,196.88
2018-07-28T12:54:01.290Z,191.25
2018-07-28T12:55:01.337Z,185.63
2018-07-28T12:56:01.262Z,185.63
2018-07-28T12:57:01.256Z,191.25
2018-07-28T12:58:01.353Z,196.88
2018-07-28T12:59:01.230Z,213.75
2018-07-28T13:00:01.263Z,230.63